METAR AND TAF INFORMATION
METAR FOR EPSC
ADDS - METARS form results

(0624 UTC 10 December 2018)
Data provider http://aviationweather.gov/metar/data/
 
METAR text: EPSC 100600Z 28014KT 9999 FEW016 BKN028 04/01 Q1002
Conditions at: EPSC (SZCZECIN/GOLENIO, PL) observed 0600 UTC 10 December 2018
Temperature: 4.0°C (39°F)
Dewpoint: 1.0°C (34°F) [RH = 81%]
Pressure (altimeter): 29.59 inches Hg (1002.0 mb)
Winds: from the W (280 degrees) at 16 MPH (14 knots; 7.2 m/s)
Visibility: 6 or more miles (10+ km)
Ceiling: 2800 feet AGL
Clouds: few clouds at 1600 feet AGL
broken clouds at 2800 feet AGL
Weather: no significant weather observed at this time

METAR text: EPSC 100530Z 27010KT 9999 FEW026 04/01 Q1001
Conditions at: EPSC (SZCZECIN/GOLENIO, PL) observed 0530 UTC 10 December 2018
Temperature: 4.0°C (39°F)
Dewpoint: 1.0°C (34°F) [RH = 81%]
Pressure (altimeter): 29.56 inches Hg (1001.0 mb)
Winds: from the W (270 degrees) at 12 MPH (10 knots; 5.1 m/s)
Visibility: 6 or more miles (10+ km)
Ceiling: at least 12,000 feet AGL
Clouds: few clouds at 2600 feet AGL
Weather: no significant weather observed at this time

Forecast for: EPSC (SZCZECIN/GOLENIO, PL)
Text: TAF EPSC 100530Z 1006/1106 28010KT 9999 BKN025
Forecast period: 0600 UTC 10 December 2018 to 0600 UTC 11 December 2018
Forecast type: FROM: standard forecast or significant change
Winds: from the W (280 degrees) at 12 MPH (10 knots; 5.1 m/s)
Visibility: 6 or more miles 10+ km)
Ceiling: 2500 feet AGL
Clouds: broken clouds at 2500 feet AGL
Weather: no significant weather forecast for this period
Text: TEMPO 1006/1014 30020G30KT -SHRA BKN007 BKN013CB
Forecast period: 0600 to 1400 UTC 10 December 2018
Forecast type: TEMPORARY: The following changes expected for less than half the time period
Winds: from the WNW (300 degrees) at 23 MPH (20 knots; 10.3 m/s)
gusting to 34 MPH (30 knots; 15.4 m/s)
Visibility: missing
Ceiling: 700 feet AGL
Clouds: broken clouds at 700 feet AGL
broken clouds at 1300 feet AGL
Weather: -SHRA  (light rain showers)
Text: TEMPO 1014/1106 3000 SHRASN BKN005 BKN010CB
Forecast period: 1400 UTC 10 December 2018 to 0600 UTC 11 December 2018
Forecast type: TEMPORARY: The following changes expected for less than half the time period
Visibility: 1.86 miles (2.99 km)
Ceiling: 500 feet AGL
Clouds: broken clouds at 500 feet AGL
broken clouds at 1000 feet AGL
Weather: SHRA SHSN  (rain showers, snow showers)

 AIRPORT MAP

 RUNWAY INFORMATION
Runway 13 Runway length 8202 ft Runway width 197 ft
Runway elevation 118 ft Runway displaced threshold 0 ft Runway heading 131
Runway 31 Runway length 8202 ft Runway width 197 ft
Runway elevation 154 ft Runway displaced threshold 0 ft Runway heading 311

 AIRPORT FREQUENCIES
Type TWR Name SZCZECIN T Frequency 118.5 MHZ

 AIRPORT NEAR NAVIGATION AIDS
Type NDB Name Szczecin Frequency 397 KHZ



Powered by Virtual Airlines Manager [v2.6.2]